| time (UTC) | temp F | wind direction | speed MPH | gust MPH | rain 1hr in | rain 24hr in | rain mn in | humidity % | barometer mb |
| 20260509100037 | 40 | 69 | 0.0 | 0.0 | 0.00 | 0.00 | 0.00 | 90 | 1026.2 |
| 20260509094533 | 41 | 69 | 0.0 | 0.0 | 0.00 | 0.00 | 0.00 | 91 | 1026.3 |
| 20260509093043 | 40 | 69 | 0.0 | 1.0 | 0.00 | 0.00 | 0.00 | 91 | 1026.4 |
| 20260509091538 | 40 | 69 | 0.0 | 1.0 | 0.00 | 0.00 | 0.00 | 92 | 1026.4 |
| 20260509090047 | 40 | 69 | 0.0 | 0.0 | 0.00 | 0.00 | 0.00 | 92 | 1026.3 |
| 20260509084543 | 40 | 69 | 0.0 | 0.0 | 0.00 | 0.00 | 0.00 | 93 | 1026.3 |
| 20260509083038 | 39 | 69 | 0.0 | 0.0 | 0.00 | 0.00 | 0.00 | 93 | 1026.5 |
| 20260509081537 | 39 | 69 | 0.0 | 0.0 | 0.00 | 0.00 | 0.00 | 94 | 1026.6 |
| 20260509080034 | 38 | 69 | 0.0 | 0.0 | 0.00 | 0.00 | 0.00 | 95 | 1026.6 |
| 20260509074546 | 37 | 69 | 0.0 | 1.0 | 0.00 | 0.00 | 0.00 | 95 | 1026.3 |
| 20260509073042 | 36 | 69 | 0.0 | 1.0 | 0.00 | 0.00 | 0.00 | 94 | 1026.3 |
| 20260509071538 | 36 | 69 | 0.0 | 1.0 | 0.00 | 0.00 | 0.00 | 93 | 1026.4 |
| 20260509070042 | 37 | 69 | 0.0 | 1.0 | 0.00 | 0.00 | 0.00 | 92 | 1026.3 |
| 20260509064541 | 37 | 69 | 0.0 | 0.0 | 0.00 | 0.00 | 0.00 | 91 | 1026.1 |
| 20260509063045 | 37 | 69 | 0.0 | 1.0 | 0.00 | 0.00 | 0.00 | 90 | 1026.3 |
| 20260509061552 | 38 | 69 | 0.0 | 1.0 | 0.00 | 0.00 | 0.00 | 89 | 1025.9 |
| 20260509060048 | 39 | 69 | 0.0 | 1.0 | 0.00 | 0.00 | 0.00 | 88 | 1026.1 |
| 20260509054607 | 39 | 69 | 0.0 | 2.0 | 0.00 | 0.00 | 0.00 | 89 | 1026.2 |
| 20260509053052 | 39 | 50 | 0.0 | 1.0 | 0.00 | 0.00 | 0.00 | 89 | 1026.2 |
| 20260509051548 | 38 | 38 | 0.0 | 2.0 | 0.00 | 0.00 | 0.00 | 90 | 1026.3 |
| 20260509050055 | 38 | 38 | 0.0 | 1.0 | 0.00 | 0.00 | 0.00 | 89 | 1026.2 |
| 20260509044549 | 39 | 38 | 0.0 | 1.0 | 0.00 | 0.00 | 0.00 | 87 | 1026.0 |
| 20260509043100 | 40 | 38 | 0.0 | 1.0 | 0.00 | 0.00 | 0.00 | 85 | 1025.6 |
| 20260509041548 | 41 | 38 | 0.0 | 1.0 | 0.00 | 0.00 | 0.00 | 83 | 1025.6 |
| 20260509040054 | 42 | 38 | 0.0 | 0.0 | 0.00 | 0.00 | 0.00 | 83 | 1025.6 |
| 20260509034556 | 43 | 38 | 0.0 | 1.0 | 0.00 | 0.00 | 0.00 | 82 | 1025.6 |
| 20260509033048 | 44 | 340 | 0.0 | 1.0 | 0.00 | 0.00 | 0.00 | 81 | 1025.2 |
| 20260509031615 | 44 | 59 | 0.0 | 2.0 | 0.00 | 0.00 | 0.00 | 80 | 1025.0 |
| 20260509030054 | 44 | 31 | 0.0 | 1.0 | 0.00 | 0.00 | 0.00 | 79 | 1024.9 |
| 20260509024559 | 44 | 209 | 0.0 | 2.0 | 0.00 | 0.00 | 0.00 | 78 | 1025.0 |
| 20260509023057 | 45 | 91 | 0.0 | 3.0 | 0.00 | 0.00 | 0.00 | 77 | 1024.8 |
| 20260509021554 | 45 | 76 | 0.0 | 2.0 | 0.00 | 0.00 | 0.00 | 78 | 1024.8 |
| 20260509020054 | 45 | 80 | 2.0 | 5.0 | 0.00 | 0.00 | 0.00 | 77 | 1024.8 |
| 20260509014542 | 46 | 79 | 1.0 | 4.0 | 0.00 | 0.00 | 0.00 | 76 | 1024.8 |
| 20260509013040 | 45 | 137 | 0.0 | 4.0 | 0.00 | 0.00 | 0.00 | 75 | 1024.9 |
| 20260509011543 | 46 | 174 | 1.0 | 6.0 | 0.00 | 0.00 | 0.00 | 73 | 1024.7 |
| 20260509010035 | 47 | 32 | 1.0 | 4.0 | 0.00 | 0.00 | 0.00 | 73 | 1024.5 |
| 20260509004546 | 47 | 75 | 1.0 | 4.0 | 0.00 | 0.00 | 0.00 | 71 | 1024.5 |
| 20260509003037 | 47 | 228 | 1.0 | 3.0 | 0.00 | 0.00 | 0.00 | 70 | 1024.5 |
| 20260509001535 | 48 | 140 | 4.0 | 10.0 | 0.00 | 0.00 | 0.00 | 67 | 1024.5 |
| 20260509000044 | 50 | 352 | 1.0 | 5.0 | 0.00 | 0.00 | 0.00 | 67 | 1024.5 |
| 20260508234538 | 50 | 140 | 5.0 | 10.0 | 0.00 | 0.00 | 0.00 | 66 | 1024.4 |
| 20260508233038 | 51 | 74 | 2.0 | 7.0 | 0.00 | 0.00 | 0.00 | 64 | 1024.2 |
| 20260508231534 | 52 | 28 | 2.0 | 7.0 | 0.00 | 0.00 | 0.00 | 63 | 1024.0 |
| 20260508230034 | 52 | 169 | 1.0 | 9.0 | 0.00 | 0.00 | 0.00 | 59 | 1024.1 |
| 20260508224532 | 52 | 99 | 2.0 | 5.0 | 0.00 | 0.00 | 0.00 | 60 | 1023.8 |
| 20260508223039 | 50 | 80 | 2.0 | 6.0 | 0.00 | 0.00 | 0.00 | 61 | 1024.0 |
| 20260508221539 | 50 | 117 | 3.0 | 9.0 | 0.00 | 0.00 | 0.00 | 61 | 1023.9 |
| 20260508220041 | 49 | 327 | 3.0 | 7.0 | 0.00 | 0.00 | 0.00 | 66 | 1024.1 |
| 20260508214535 | 49 | 172 | 1.0 | 6.0 | 0.00 | 0.00 | 0.00 | 67 | 1024.0 |
| 20260508213046 | 49 | 51 | 2.0 | 6.0 | 0.00 | 0.00 | 0.00 | 68 | 1023.9 |
| 20260508211538 | 48 | 107 | 2.0 | 8.0 | 0.00 | 0.00 | 0.00 | 68 | 1023.7 |
| 20260508210042 | 49 | 67 | 2.0 | 9.0 | 0.00 | 0.00 | 0.00 | 72 | 1023.6 |
| 20260508204541 | 47 | 113 | 2.0 | 9.0 | 0.00 | 0.00 | 0.00 | 76 | 1023.5 |
| 20260508203046 | 49 | 65 | 3.0 | 9.0 | 0.00 | 0.00 | 0.00 | 74 | 1023.4 |
| 20260508201541 | 48 | 67 | 3.0 | 10.0 | 0.00 | 0.00 | 0.00 | 76 | 1023.3 |
| 20260508200041 | 47 | 124 | 2.0 | 9.0 | 0.00 | 0.00 | 0.00 | 78 | 1023.2 |
| 20260508194539 | 47 | 88 | 2.0 | 4.0 | 0.00 | 0.00 | 0.00 | 78 | 1022.8 |
| 20260508193039 | 47 | 117 | 2.0 | 4.0 | 0.00 | 0.00 | 0.00 | 79 | 1023.0 |
| 20260508191537 | 49 | 59 | 2.0 | 6.0 | 0.00 | 0.00 | 0.00 | 76 | 1022.9 |
| 20260508190042 | 49 | 115 | 1.0 | 6.0 | 0.00 | 0.00 | 0.00 | 74 | 1022.9 |
| 20260508184534 | 49 | 96 | 1.0 | 4.0 | 0.00 | 0.00 | 0.00 | 70 | 1022.3 |
| 20260508183039 | 50 | 38 | 1.0 | 8.0 | 0.00 | 0.00 | 0.00 | 62 | 1022.3 |
| 20260508181604 | 51 | 99 | 3.0 | 6.0 | 0.00 | 0.00 | 0.00 | 63 | 1022.1 |
| 20260508180041 | 50 | 123 | 2.0 | 7.0 | 0.00 | 0.00 | 0.00 | 62 | 1021.8 |
| 20260508174535 | 49 | 128 | 2.0 | 5.0 | 0.00 | 0.00 | 0.00 | 65 | 1022.1 |
| 20260508173036 | 50 | 126 | 1.0 | 4.0 | 0.00 | 0.00 | 0.00 | 67 | 1021.8 |
| 20260508171532 | 50 | 38 | 1.0 | 3.0 | 0.00 | 0.00 | 0.00 | 71 | 1021.9 |
| 20260508170035 | 49 | 162 | 1.0 | 4.0 | 0.00 | 0.00 | 0.00 | 74 | 1021.9 |
| 20260508164543 | 48 | 90 | 1.0 | 5.0 | 0.00 | 0.00 | 0.00 | 79 | 1021.9 |
| 20260508163036 | 47 | 106 | 1.0 | 3.0 | 0.00 | 0.00 | 0.00 | 79 | 1021.9 |
| 20260508161537 | 46 | 117 | 0.0 | 4.0 | 0.00 | 0.00 | 0.00 | 82 | 1021.9 |
| 20260508160040 | 46 | 71 | 1.0 | 4.0 | 0.00 | 0.00 | 0.00 | 82 | 1021.8 |
| 20260508154550 | 46 | 121 | 0.0 | 3.0 | 0.00 | 0.00 | 0.00 | 81 | 1021.7 |
| 20260508153040 | 46 | 122 | 0.0 | 3.0 | 0.00 | 0.00 | 0.00 | 82 | 1021.6 |
| 20260508151539 | 45 | 79 | 0.0 | 1.0 | 0.00 | 0.00 | 0.00 | 80 | 1021.6 |
| 20260508150038 | 44 | 84 | 0.0 | 3.0 | 0.00 | 0.00 | 0.00 | 81 | 1021.5 |
| 20260508144534 | 43 | 307 | 0.0 | 0.0 | 0.00 | 0.00 | 0.00 | 82 | 1021.3 |
| 20260508143039 | 43 | 327 | 0.0 | 1.0 | 0.00 | 0.00 | 0.00 | 85 | 1021.2 |
| 20260508141547 | 42 | 327 | 0.0 | 2.0 | 0.00 | 0.00 | 0.00 | 86 | 1021.3 |
| 20260508140032 | 40 | 335 | 0.0 | 1.0 | 0.00 | 0.00 | 0.00 | 89 | 1021.1 |
| 20260508134547 | 39 | 335 | 0.0 | 2.0 | 0.00 | 0.00 | 0.00 | 86 | 1021.1 |
| 20260508133038 | 38 | 332 | 0.0 | 2.0 | 0.00 | 0.00 | 0.00 | 88 | 1021.1 |
| 20260508131544 | 37 | 329 | 0.0 | 2.0 | 0.00 | 0.00 | 0.00 | 87 | 1020.9 |
| 20260508130035 | 37 | 317 | 1.0 | 2.0 | 0.00 | 0.00 | 0.00 | 87 | 1021.0 |
| 20260508124539 | 36 | 349 | 0.0 | 2.0 | 0.00 | 0.00 | 0.00 | 88 | 1021.0 |
| 20260508123038 | 36 | 341 | 0.0 | 2.0 | 0.00 | 0.00 | 0.00 | 90 | 1021.0 |
| 20260508121537 | 36 | 341 | 0.0 | 1.0 | 0.00 | 0.00 | 0.00 | 90 | 1021.1 |
| 20260508120052 | 35 | 352 | 0.0 | 1.0 | 0.00 | 0.00 | 0.00 | 89 | 1021.1 |
| 20260508114541 | 36 | 352 | 0.0 | 2.0 | 0.00 | 0.00 | 0.00 | 90 | 1021.0 |
| 20260508113033 | 36 | 338 | 0.0 | 1.0 | 0.00 | 0.00 | 0.00 | 89 | 1020.9 |
| 20260508111549 | 36 | 324 | 0.0 | 1.0 | 0.00 | 0.00 | 0.00 | 93 | 1020.8 |
| 20260508110049 | 36 | 324 | 0.0 | 1.0 | 0.00 | 0.00 | 0.00 | 92 | 1020.9 |
| 20260508104533 | 36 | 324 | 0.0 | 2.0 | 0.00 | 0.00 | 0.00 | 90 | 1020.7 |
| 20260508103042 | 36 | 347 | 0.0 | 2.0 | 0.00 | 0.00 | 0.00 | 91 | 1020.7 |
| 20260508101543 | 36 | 331 | 0.0 | 1.0 | 0.00 | 0.00 | 0.00 | 92 | 1020.7 |